sensor_id;sensor_type;location;lat;lon;timestamp;P1;durP1;ratioP1;P2;durP2;ratioP2
56567;SDS011;42456;49.956;20.004;2022-10-26T00:00:30;5.17;;;3.08;;
56567;SDS011;42456;49.956;20.004;2022-10-26T00:02:56;8.45;;;3.22;;
56567;SDS011;42456;49.956;20.004;2022-10-26T00:05:23;8.70;;;4.30;;
56567;SDS011;42456;49.956;20.004;2022-10-26T00:07:49;7.67;;;3.40;;
56567;SDS011;42456;49.956;20.004;2022-10-26T00:10:15;4.53;;;3.22;;
56567;SDS011;42456;49.956;20.004;2022-10-26T00:12:42;8.05;;;3.55;;
56567;SDS011;42456;49.956;20.004;2022-10-26T00:15:08;9.30;;;3.60;;
56567;SDS011;42456;49.956;20.004;2022-10-26T00:17:35;10.40;;;3.80;;
56567;SDS011;42456;49.956;20.004;2022-10-26T00:20:01;6.67;;;3.75;;
56567;SDS011;42456;49.956;20.004;2022-10-26T00:22:29;7.40;;;3.62;;
56567;SDS011;42456;49.956;20.004;2022-10-26T00:24:55;6.92;;;3.55;;
56567;SDS011;42456;49.956;20.004;2022-10-26T00:27:21;8.58;;;3.83;;
56567;SDS011;42456;49.956;20.004;2022-10-26T00:29:48;6.80;;;3.77;;
56567;SDS011;42456;49.956;20.004;2022-10-26T00:32:14;6.67;;;3.83;;
56567;SDS011;42456;49.956;20.004;2022-10-26T00:34:40;13.53;;;4.30;;
56567;SDS011;42456;49.956;20.004;2022-10-26T00:37:06;7.40;;;3.80;;
56567;SDS011;42456;49.956;20.004;2022-10-26T00:39:33;8.40;;;3.80;;
56567;SDS011;42456;49.956;20.004;2022-10-26T00:42:00;7.72;;;3.55;;
56567;SDS011;42456;49.956;20.004;2022-10-26T00:50:14;4.90;;;3.27;;
56567;SDS011;42456;49.956;20.004;2022-10-26T00:52:55;8.70;;;3.60;;
56567;SDS011;42456;49.956;20.004;2022-10-26T00:55:25;8.27;;;3.70;;
56567;SDS011;42456;49.956;20.004;2022-10-26T00:57:54;8.25;;;3.65;;
56567;SDS011;42456;49.956;20.004;2022-10-26T01:00:20;6.83;;;3.50;;
56567;SDS011;42456;49.956;20.004;2022-10-26T01:02:47;11.08;;;3.87;;
56567;SDS011;42456;49.956;20.004;2022-10-26T01:05:16;8.65;;;3.58;;
56567;SDS011;42456;49.956;20.004;2022-10-26T01:07:45;7.87;;;4.10;;
56567;SDS011;42456;49.956;20.004;2022-10-26T01:10:13;6.22;;;3.87;;
56567;SDS011;42456;49.956;20.004;2022-10-26T01:12:39;10.05;;;3.80;;
56567;SDS011;42456;49.956;20.004;2022-10-26T01:15:06;7.47;;;3.42;;
56567;SDS011;42456;49.956;20.004;2022-10-26T01:18:09;6.58;;;3.42;;
56567;SDS011;42456;49.956;20.004;2022-10-26T01:20:38;8.60;;;3.37;;
56567;SDS011;42456;49.956;20.004;2022-10-26T01:23:12;7.22;;;3.52;;
56567;SDS011;42456;49.956;20.004;2022-10-26T01:34:31;5.50;;;3.20;;
56567;SDS011;42456;49.956;20.004;2022-10-26T01:37:02;7.40;;;3.20;;
56567;SDS011;42456;49.956;20.004;2022-10-26T01:39:38;7.97;;;3.50;;
56567;SDS011;42456;49.956;20.004;2022-10-26T01:42:14;6.90;;;3.67;;
56567;SDS011;42456;49.956;20.004;2022-10-26T01:44:51;4.50;;;3.45;;
56567;SDS011;42456;49.956;20.004;2022-10-26T01:47:22;8.03;;;3.52;;
56567;SDS011;42456;49.956;20.004;2022-10-26T01:49:51;7.12;;;3.70;;
56567;SDS011;42456;49.956;20.004;2022-10-26T01:54:47;5.10;;;3.17;;
56567;SDS011;42456;49.956;20.004;2022-10-26T01:57:14;6.45;;;3.60;;
56567;SDS011;42456;49.956;20.004;2022-10-26T02:05:30;5.12;;;3.30;;
56567;SDS011;42456;49.956;20.004;2022-10-26T02:16:48;7.37;;;3.50;;
56567;SDS011;42456;49.956;20.004;2022-10-26T02:24:41;7.85;;;3.40;;
56567;SDS011;42456;49.956;20.004;2022-10-26T02:27:10;7.50;;;3.50;;
56567;SDS011;42456;49.956;20.004;2022-10-26T02:29:40;8.45;;;3.50;;
56567;SDS011;42456;49.956;20.004;2022-10-26T02:32:09;6.08;;;3.15;;
56567;SDS011;42456;49.956;20.004;2022-10-26T02:34:37;7.78;;;3.20;;
56567;SDS011;42456;49.956;20.004;2022-10-26T02:39:33;10.08;;;3.17;;
56567;SDS011;42456;49.956;20.004;2022-10-26T02:42:03;6.87;;;3.45;;
56567;SDS011;42456;49.956;20.004;2022-10-26T02:44:38;5.45;;;3.20;;
56567;SDS011;42456;49.956;20.004;2022-10-26T02:47:06;10.08;;;3.60;;
56567;SDS011;42456;49.956;20.004;2022-10-26T02:49:34;5.25;;;3.27;;
56567;SDS011;42456;49.956;20.004;2022-10-26T02:52:01;6.87;;;3.87;;
56567;SDS011;42456;49.956;20.004;2022-10-26T02:54:51;7.97;;;3.45;;
56567;SDS011;42456;49.956;20.004;2022-10-26T02:57:29;11.50;;;3.62;;
56567;SDS011;42456;49.956;20.004;2022-10-26T03:00:10;6.30;;;3.17;;
56567;SDS011;42456;49.956;20.004;2022-10-26T03:02:35;7.28;;;3.25;;
56567;SDS011;42456;49.956;20.004;2022-10-26T03:05:12;6.28;;;3.37;;
56567;SDS011;42456;49.956;20.004;2022-10-26T03:07:42;7.00;;;3.17;;
56567;SDS011;42456;49.956;20.004;2022-10-26T03:10:08;6.92;;;3.20;;
56567;SDS011;42456;49.956;20.004;2022-10-26T03:12:35;6.22;;;3.00;;
56567;SDS011;42456;49.956;20.004;2022-10-26T03:15:02;7.70;;;3.98;;
56567;SDS011;42456;49.956;20.004;2022-10-26T03:17:29;7.22;;;3.35;;
56567;SDS011;42456;49.956;20.004;2022-10-26T03:19:56;8.08;;;3.65;;
56567;SDS011;42456;49.956;20.004;2022-10-26T03:22:22;7.03;;;3.58;;
56567;SDS011;42456;49.956;20.004;2022-10-26T03:24:48;5.87;;;3.47;;
56567;SDS011;42456;49.956;20.004;2022-10-26T03:27:15;5.47;;;3.30;;
56567;SDS011;42456;49.956;20.004;2022-10-26T03:29:41;5.60;;;3.35;;
56567;SDS011;42456;49.956;20.004;2022-10-26T03:32:07;6.80;;;3.72;;
56567;SDS011;42456;49.956;20.004;2022-10-26T03:34:34;8.68;;;3.52;;
56567;SDS011;42456;49.956;20.004;2022-10-26T03:37:00;7.22;;;3.47;;
56567;SDS011;42456;49.956;20.004;2022-10-26T03:39:26;7.40;;;3.70;;
56567;SDS011;42456;49.956;20.004;2022-10-26T03:41:52;10.63;;;3.83;;
56567;SDS011;42456;49.956;20.004;2022-10-26T03:44:20;11.80;;;3.47;;
56567;SDS011;42456;49.956;20.004;2022-10-26T03:46:47;7.47;;;3.65;;
56567;SDS011;42456;49.956;20.004;2022-10-26T03:49:13;5.55;;;3.50;;
56567;SDS011;42456;49.956;20.004;2022-10-26T03:51:39;8.53;;;3.62;;
56567;SDS011;42456;49.956;20.004;2022-10-26T03:54:05;8.33;;;3.45;;
56567;SDS011;42456;49.956;20.004;2022-10-26T03:56:32;7.95;;;3.58;;
56567;SDS011;42456;49.956;20.004;2022-10-26T03:58:59;8.05;;;3.25;;
56567;SDS011;42456;49.956;20.004;2022-10-26T04:01:25;7.55;;;3.27;;
56567;SDS011;42456;49.956;20.004;2022-10-26T04:03:51;7.37;;;3.58;;
56567;SDS011;42456;49.956;20.004;2022-10-26T04:06:18;8.05;;;3.75;;
56567;SDS011;42456;49.956;20.004;2022-10-26T04:08:44;5.03;;;3.50;;
56567;SDS011;42456;49.956;20.004;2022-10-26T04:11:10;6.17;;;3.50;;
56567;SDS011;42456;49.956;20.004;2022-10-26T04:13:37;6.30;;;3.40;;
56567;SDS011;42456;49.956;20.004;2022-10-26T04:16:03;4.92;;;3.08;;
56567;SDS011;42456;49.956;20.004;2022-10-26T04:18:30;8.13;;;3.25;;
56567;SDS011;42456;49.956;20.004;2022-10-26T04:20:59;8.80;;;3.47;;
56567;SDS011;42456;49.956;20.004;2022-10-26T04:23:27;8.05;;;3.27;;
56567;SDS011;42456;49.956;20.004;2022-10-26T04:25:53;11.22;;;3.85;;
56567;SDS011;42456;49.956;20.004;2022-10-26T04:28:19;7.55;;;3.80;;
56567;SDS011;42456;49.956;20.004;2022-10-26T04:30:46;6.37;;;3.90;;
56567;SDS011;42456;49.956;20.004;2022-10-26T04:33:12;6.62;;;3.60;;
56567;SDS011;42456;49.956;20.004;2022-10-26T04:35:39;5.70;;;3.60;;
56567;SDS011;42456;49.956;20.004;2022-10-26T04:38:05;6.15;;;3.50;;
56567;SDS011;42456;49.956;20.004;2022-10-26T04:40:32;7.20;;;3.20;;
56567;SDS011;42456;49.956;20.004;2022-10-26T04:42:59;4.87;;;3.37;;
56567;SDS011;42456;49.956;20.004;2022-10-26T04:45:26;7.00;;;3.47;;
56567;SDS011;42456;49.956;20.004;2022-10-26T04:48:02;7.45;;;3.00;;
56567;SDS011;42456;49.956;20.004;2022-10-26T04:50:30;7.80;;;3.30;;
56567;SDS011;42456;49.956;20.004;2022-10-26T04:52:57;6.45;;;3.10;;
56567;SDS011;42456;49.956;20.004;2022-10-26T04:55:24;5.03;;;3.15;;
56567;SDS011;42456;49.956;20.004;2022-10-26T04:57:51;5.62;;;3.22;;
56567;SDS011;42456;49.956;20.004;2022-10-26T05:00:17;8.28;;;3.62;;
56567;SDS011;42456;49.956;20.004;2022-10-26T05:02:43;6.75;;;3.22;;
56567;SDS011;42456;49.956;20.004;2022-10-26T05:05:10;8.50;;;3.30;;
56567;SDS011;42456;49.956;20.004;2022-10-26T05:07:36;5.25;;;3.17;;
56567;SDS011;42456;49.956;20.004;2022-10-26T05:10:02;6.05;;;3.12;;
56567;SDS011;42456;49.956;20.004;2022-10-26T05:12:30;8.15;;;3.72;;
56567;SDS011;42456;49.956;20.004;2022-10-26T05:14:56;6.05;;;3.17;;
56567;SDS011;42456;49.956;20.004;2022-10-26T05:17:26;6.65;;;3.30;;
56567;SDS011;42456;49.956;20.004;2022-10-26T05:19:52;7.60;;;3.15;;
56567;SDS011;42456;49.956;20.004;2022-10-26T05:22:24;5.45;;;2.92;;
56567;SDS011;42456;49.956;20.004;2022-10-26T05:24:50;6.65;;;3.33;;
56567;SDS011;42456;49.956;20.004;2022-10-26T05:27:16;3.62;;;2.60;;
56567;SDS011;42456;49.956;20.004;2022-10-26T05:29:43;6.40;;;3.17;;
56567;SDS011;42456;49.956;20.004;2022-10-26T05:32:09;4.30;;;2.83;;
56567;SDS011;42456;49.956;20.004;2022-10-26T05:34:36;7.90;;;3.08;;
56567;SDS011;42456;49.956;20.004;2022-10-26T05:37:02;6.47;;;3.35;;
56567;SDS011;42456;49.956;20.004;2022-10-26T05:39:28;4.60;;;3.05;;
56567;SDS011;42456;49.956;20.004;2022-10-26T05:41:54;4.47;;;3.00;;
56567;SDS011;42456;49.956;20.004;2022-10-26T05:44:21;5.17;;;3.40;;
56567;SDS011;42456;49.956;20.004;2022-10-26T05:46:47;5.22;;;2.90;;
56567;SDS011;42456;49.956;20.004;2022-10-26T05:49:13;7.72;;;3.50;;
56567;SDS011;42456;49.956;20.004;2022-10-26T05:51:40;6.80;;;3.22;;
56567;SDS011;42456;49.956;20.004;2022-10-26T05:54:06;4.90;;;3.20;;
56567;SDS011;42456;49.956;20.004;2022-10-26T05:56:33;6.20;;;3.20;;
56567;SDS011;42456;49.956;20.004;2022-10-26T05:59:14;5.25;;;3.10;;
56567;SDS011;42456;49.956;20.004;2022-10-26T06:07:11;5.87;;;3.23;;
56567;SDS011;42456;49.956;20.004;2022-10-26T06:09:44;6.45;;;3.42;;
56567;SDS011;42456;49.956;20.004;2022-10-26T06:12:12;8.13;;;3.52;;
56567;SDS011;42456;49.956;20.004;2022-10-26T06:14:40;6.12;;;3.33;;
56567;SDS011;42456;49.956;20.004;2022-10-26T06:20:00;9.00;;;4.20;;
56567;SDS011;42456;49.956;20.004;2022-10-26T06:30:56;5.67;;;3.30;;
56567;SDS011;42456;49.956;20.004;2022-10-26T06:33:23;8.55;;;3.65;;
56567;SDS011;42456;49.956;20.004;2022-10-26T06:35:54;6.20;;;3.42;;
56567;SDS011;42456;49.956;20.004;2022-10-26T06:38:40;7.22;;;3.80;;
56567;SDS011;42456;49.956;20.004;2022-10-26T06:41:10;8.40;;;3.65;;
56567;SDS011;42456;49.956;20.004;2022-10-26T06:43:42;5.05;;;3.22;;
56567;SDS011;42456;49.956;20.004;2022-10-26T06:49:18;8.30;;;3.75;;
56567;SDS011;42456;49.956;20.004;2022-10-26T06:51:40;5.55;;;3.50;;
56567;SDS011;42456;49.956;20.004;2022-10-26T06:56:46;10.50;;;3.50;;
56567;SDS011;42456;49.956;20.004;2022-10-26T06:59:15;6.33;;;3.83;;
56567;SDS011;42456;49.956;20.004;2022-10-26T07:01:58;8.15;;;3.95;;
56567;SDS011;42456;49.956;20.004;2022-10-26T07:04:24;7.33;;;3.87;;
56567;SDS011;42456;49.956;20.004;2022-10-26T07:06:50;9.15;;;4.20;;
56567;SDS011;42456;49.956;20.004;2022-10-26T07:09:16;5.97;;;3.62;;
56567;SDS011;42456;49.956;20.004;2022-10-26T07:11:43;7.17;;;3.92;;
56567;SDS011;42456;49.956;20.004;2022-10-26T07:14:09;6.95;;;3.90;;
56567;SDS011;42456;49.956;20.004;2022-10-26T07:16:35;8.00;;;4.20;;
56567;SDS011;42456;49.956;20.004;2022-10-26T07:19:02;10.98;;;4.97;;
56567;SDS011;42456;49.956;20.004;2022-10-26T07:21:28;8.15;;;4.28;;
56567;SDS011;42456;49.956;20.004;2022-10-26T07:23:54;10.55;;;4.83;;
56567;SDS011;42456;49.956;20.004;2022-10-26T07:26:21;8.53;;;4.30;;
56567;SDS011;42456;49.956;20.004;2022-10-26T07:28:50;8.90;;;4.40;;
56567;SDS011;42456;49.956;20.004;2022-10-26T07:31:16;11.18;;;5.08;;
56567;SDS011;42456;49.956;20.004;2022-10-26T07:33:43;9.78;;;4.22;;
56567;SDS011;42456;49.956;20.004;2022-10-26T07:36:10;9.33;;;4.28;;
56567;SDS011;42456;49.956;20.004;2022-10-26T07:38:37;8.28;;;4.40;;
56567;SDS011;42456;49.956;20.004;2022-10-26T07:41:04;6.33;;;3.77;;
56567;SDS011;42456;49.956;20.004;2022-10-26T07:43:30;8.25;;;4.08;;
56567;SDS011;42456;49.956;20.004;2022-10-26T07:45:57;8.80;;;4.12;;
56567;SDS011;42456;49.956;20.004;2022-10-26T07:48:23;9.40;;;4.12;;
56567;SDS011;42456;49.956;20.004;2022-10-26T07:50:49;6.47;;;3.80;;
56567;SDS011;42456;49.956;20.004;2022-10-26T07:53:16;9.38;;;4.17;;
56567;SDS011;42456;49.956;20.004;2022-10-26T07:55:42;10.18;;;5.17;;
56567;SDS011;42456;49.956;20.004;2022-10-26T07:58:08;9.23;;;5.55;;
56567;SDS011;42456;49.956;20.004;2022-10-26T08:00:35;11.20;;;5.50;;
56567;SDS011;42456;49.956;20.004;2022-10-26T08:03:02;7.83;;;4.33;;
56567;SDS011;42456;49.956;20.004;2022-10-26T08:05:28;7.45;;;3.98;;
56567;SDS011;42456;49.956;20.004;2022-10-26T08:07:54;8.70;;;3.92;;
56567;SDS011;42456;49.956;20.004;2022-10-26T08:10:21;8.30;;;4.35;;
56567;SDS011;42456;49.956;20.004;2022-10-26T08:12:47;9.10;;;3.98;;
56567;SDS011;42456;49.956;20.004;2022-10-26T08:15:13;8.10;;;3.80;;
56567;SDS011;42456;49.956;20.004;2022-10-26T08:17:39;7.03;;;3.55;;
56567;SDS011;42456;49.956;20.004;2022-10-26T08:20:06;6.72;;;3.50;;
56567;SDS011;42456;49.956;20.004;2022-10-26T08:22:33;9.33;;;3.52;;
56567;SDS011;42456;49.956;20.004;2022-10-26T08:25:00;8.15;;;3.45;;
56567;SDS011;42456;49.956;20.004;2022-10-26T08:27:26;7.70;;;3.90;;
56567;SDS011;42456;49.956;20.004;2022-10-26T08:29:52;9.20;;;4.17;;
56567;SDS011;42456;49.956;20.004;2022-10-26T08:32:18;9.83;;;3.72;;
56567;SDS011;42456;49.956;20.004;2022-10-26T08:34:45;7.35;;;3.72;;
56567;SDS011;42456;49.956;20.004;2022-10-26T08:37:11;9.10;;;3.77;;
56567;SDS011;42456;49.956;20.004;2022-10-26T08:39:37;9.05;;;3.60;;
56567;SDS011;42456;49.956;20.004;2022-10-26T08:42:12;7.53;;;3.22;;
56567;SDS011;42456;49.956;20.004;2022-10-26T08:44:45;7.08;;;3.42;;
56567;SDS011;42456;49.956;20.004;2022-10-26T08:47:21;5.75;;;2.95;;
56567;SDS011;42456;49.956;20.004;2022-10-26T08:49:53;7.83;;;2.95;;
56567;SDS011;42456;49.956;20.004;2022-10-26T08:57:40;8.13;;;3.35;;
56567;SDS011;42456;49.956;20.004;2022-10-26T09:00:11;6.25;;;3.10;;
56567;SDS011;42456;49.956;20.004;2022-10-26T09:02:40;8.13;;;3.20;;
56567;SDS011;42456;49.956;20.004;2022-10-26T09:05:13;5.05;;;2.70;;
56567;SDS011;42456;49.956;20.004;2022-10-26T09:21:45;6.62;;;3.00;;
56567;SDS011;42456;49.956;20.004;2022-10-26T09:29:41;6.05;;;2.60;;
56567;SDS011;42456;49.956;20.004;2022-10-26T09:32:16;5.60;;;2.92;;
56567;SDS011;42456;49.956;20.004;2022-10-26T09:34:59;5.85;;;2.98;;
56567;SDS011;42456;49.956;20.004;2022-10-26T09:37:36;5.53;;;2.62;;
56567;SDS011;42456;49.956;20.004;2022-10-26T09:41:14;6.78;;;2.40;;
56567;SDS011;42456;49.956;20.004;2022-10-26T09:45:45;8.48;;;2.77;;
56567;SDS011;42456;49.956;20.004;2022-10-26T09:51:09;6.15;;;2.67;;
56567;SDS011;42456;49.956;20.004;2022-10-26T09:53:36;6.50;;;2.65;;
56567;SDS011;42456;49.956;20.004;2022-10-26T09:56:03;7.80;;;2.60;;
56567;SDS011;42456;49.956;20.004;2022-10-26T09:59:06;5.97;;;2.70;;
56567;SDS011;42456;49.956;20.004;2022-10-26T10:01:21;5.92;;;2.30;;
56567;SDS011;42456;49.956;20.004;2022-10-26T10:06:47;2.92;;;1.80;;
56567;SDS011;42456;49.956;20.004;2022-10-26T10:09:27;5.28;;;2.27;;
56567;SDS011;42456;49.956;20.004;2022-10-26T10:11:54;4.00;;;2.05;;
56567;SDS011;42456;49.956;20.004;2022-10-26T10:14:27;6.35;;;2.67;;
56567;SDS011;42456;49.956;20.004;2022-10-26T10:17:05;6.35;;;2.60;;
56567;SDS011;42456;49.956;20.004;2022-10-26T10:19:36;7.00;;;2.70;;
56567;SDS011;42456;49.956;20.004;2022-10-26T10:27:30;4.00;;;2.40;;
56567;SDS011;42456;49.956;20.004;2022-10-26T10:29:58;5.25;;;2.90;;
56567;SDS011;42456;49.956;20.004;2022-10-26T10:32:28;5.85;;;2.50;;
56567;SDS011;42456;49.956;20.004;2022-10-26T10:35:01;4.37;;;2.60;;
56567;SDS011;42456;49.956;20.004;2022-10-26T10:40:06;8.08;;;2.60;;
56567;SDS011;42456;49.956;20.004;2022-10-26T10:42:49;9.05;;;3.42;;
56567;SDS011;42456;49.956;20.004;2022-10-26T10:45:20;6.08;;;2.85;;
56567;SDS011;42456;49.956;20.004;2022-10-26T10:53:33;2.58;;;1.70;;
56567;SDS011;42456;49.956;20.004;2022-10-26T10:56:03;3.92;;;1.95;;
56567;SDS011;42456;49.956;20.004;2022-10-26T10:58:53;3.62;;;2.02;;
56567;SDS011;42456;49.956;20.004;2022-10-26T11:01:31;3.67;;;2.02;;
56567;SDS011;42456;49.956;20.004;2022-10-26T11:07:10;3.33;;;2.05;;
56567;SDS011;42456;49.956;20.004;2022-10-26T11:09:39;4.55;;;2.45;;
56567;SDS011;42456;49.956;20.004;2022-10-26T11:12:10;3.98;;;1.70;;
56567;SDS011;42456;49.956;20.004;2022-10-26T11:14:46;6.17;;;2.10;;
56567;SDS011;42456;49.956;20.004;2022-10-26T11:17:30;7.17;;;2.75;;
56567;SDS011;42456;49.956;20.004;2022-10-26T11:20:04;5.30;;;2.45;;
56567;SDS011;42456;49.956;20.004;2022-10-26T11:22:52;5.83;;;2.50;;
56567;SDS011;42456;49.956;20.004;2022-10-26T11:25:26;2.98;;;2.20;;
56567;SDS011;42456;49.956;20.004;2022-10-26T11:28:13;3.27;;;2.20;;
56567;SDS011;42456;49.956;20.004;2022-10-26T11:31:09;10.03;;;2.40;;
56567;SDS011;42456;49.956;20.004;2022-10-26T11:33:41;4.28;;;2.27;;
56567;SDS011;42456;49.956;20.004;2022-10-26T11:36:15;7.10;;;2.60;;
56567;SDS011;42456;49.956;20.004;2022-10-26T11:38:48;7.78;;;2.50;;
56567;SDS011;42456;49.956;20.004;2022-10-26T11:41:30;2.90;;;2.10;;
56567;SDS011;42456;49.956;20.004;2022-10-26T11:46:51;4.37;;;1.92;;
56567;SDS011;42456;49.956;20.004;2022-10-26T11:52:18;3.90;;;2.20;;
56567;SDS011;42456;49.956;20.004;2022-10-26T11:54:54;2.75;;;2.00;;
56567;SDS011;42456;49.956;20.004;2022-10-26T11:57:24;5.20;;;2.10;;
56567;SDS011;42456;49.956;20.004;2022-10-26T11:59:53;5.30;;;2.10;;
56567;SDS011;42456;49.956;20.004;2022-10-26T12:02:26;7.12;;;2.90;;
56567;SDS011;42456;49.956;20.004;2022-10-26T12:04:54;3.95;;;2.50;;
56567;SDS011;42456;49.956;20.004;2022-10-26T12:07:47;5.65;;;2.20;;
56567;SDS011;42456;49.956;20.004;2022-10-26T12:10:26;6.33;;;2.40;;
56567;SDS011;42456;49.956;20.004;2022-10-26T12:13:00;2.65;;;1.80;;
56567;SDS011;42456;49.956;20.004;2022-10-26T12:15:39;3.02;;;1.82;;
56567;SDS011;42456;49.956;20.004;2022-10-26T12:18:19;2.72;;;1.75;;
56567;SDS011;42456;49.956;20.004;2022-10-26T12:21:00;2.62;;;1.60;;
56567;SDS011;42456;49.956;20.004;2022-10-26T12:23:34;2.22;;;1.87;;
56567;SDS011;42456;49.956;20.004;2022-10-26T12:31:39;6.08;;;1.98;;
56567;SDS011;42456;49.956;20.004;2022-10-26T12:34:06;2.95;;;1.72;;
56567;SDS011;42456;49.956;20.004;2022-10-26T12:39:25;3.40;;;1.60;;
56567;SDS011;42456;49.956;20.004;2022-10-26T13:01:19;4.47;;;2.30;;
56567;SDS011;42456;49.956;20.004;2022-10-26T13:07:06;6.95;;;2.00;;
56567;SDS011;42456;49.956;20.004;2022-10-26T13:09:57;3.90;;;1.80;;
56567;SDS011;42456;49.956;20.004;2022-10-26T13:12:46;4.05;;;2.05;;
56567;SDS011;42456;49.956;20.004;2022-10-26T13:15:26;4.45;;;2.20;;
56567;SDS011;42456;49.956;20.004;2022-10-26T13:17:59;3.77;;;2.02;;
56567;SDS011;42456;49.956;20.004;2022-10-26T13:23:12;3.25;;;1.72;;
56567;SDS011;42456;49.956;20.004;2022-10-26T13:25:41;4.30;;;2.13;;
56567;SDS011;42456;49.956;20.004;2022-10-26T13:31:07;3.15;;;1.62;;
56567;SDS011;42456;49.956;20.004;2022-10-26T13:33:45;6.30;;;1.82;;
56567;SDS011;42456;49.956;20.004;2022-10-26T13:38:49;5.70;;;2.00;;
56567;SDS011;42456;49.956;20.004;2022-10-26T13:41:18;5.45;;;2.85;;
56567;SDS011;42456;49.956;20.004;2022-10-26T13:43:52;3.65;;;2.02;;
56567;SDS011;42456;49.956;20.004;2022-10-26T13:46:22;3.45;;;1.90;;
56567;SDS011;42456;49.956;20.004;2022-10-26T13:48:50;1.72;;;1.32;;
56567;SDS011;42456;49.956;20.004;2022-10-26T13:51:22;6.08;;;1.50;;
56567;SDS011;42456;49.956;20.004;2022-10-26T13:53:54;3.70;;;1.60;;
56567;SDS011;42456;49.956;20.004;2022-10-26T13:56:30;2.85;;;1.85;;
56567;SDS011;42456;49.956;20.004;2022-10-26T13:59:00;4.15;;;2.33;;
56567;SDS011;42456;49.956;20.004;2022-10-26T14:01:33;4.33;;;1.62;;
56567;SDS011;42456;49.956;20.004;2022-10-26T14:04:46;5.20;;;2.30;;
56567;SDS011;42456;49.956;20.004;2022-10-26T14:06:48;5.85;;;2.10;;
56567;SDS011;42456;49.956;20.004;2022-10-26T14:09:16;6.78;;;2.52;;
56567;SDS011;42456;49.956;20.004;2022-10-26T14:11:48;6.17;;;2.80;;
56567;SDS011;42456;49.956;20.004;2022-10-26T14:17:02;5.65;;;2.30;;
56567;SDS011;42456;49.956;20.004;2022-10-26T14:19:33;6.50;;;2.22;;
56567;SDS011;42456;49.956;20.004;2022-10-26T14:22:02;4.00;;;1.90;;
56567;SDS011;42456;49.956;20.004;2022-10-26T14:24:33;6.50;;;1.90;;
56567;SDS011;42456;49.956;20.004;2022-10-26T14:27:12;4.50;;;1.90;;
56567;SDS011;42456;49.956;20.004;2022-10-26T14:29:40;17.15;;;6.62;;
56567;SDS011;42456;49.956;20.004;2022-10-26T14:32:48;58.87;;;25.82;;
56567;SDS011;42456;49.956;20.004;2022-10-26T14:34:49;103.00;;;39.88;;
56567;SDS011;42456;49.956;20.004;2022-10-26T14:37:40;70.08;;;28.40;;
56567;SDS011;42456;49.956;20.004;2022-10-26T14:40:02;46.20;;;18.75;;
56567;SDS011;42456;49.956;20.004;2022-10-26T14:42:31;35.13;;;13.05;;
56567;SDS011;42456;49.956;20.004;2022-10-26T14:45:00;31.65;;;11.00;;
56567;SDS011;42456;49.956;20.004;2022-10-26T14:47:28;24.43;;;8.73;;
56567;SDS011;42456;49.956;20.004;2022-10-26T14:49:58;17.02;;;5.72;;
56567;SDS011;42456;49.956;20.004;2022-10-26T14:52:26;14.17;;;4.63;;
56567;SDS011;42456;49.956;20.004;2022-10-26T14:55:02;14.40;;;4.87;;
56567;SDS011;42456;49.956;20.004;2022-10-26T14:57:33;13.83;;;4.80;;
56567;SDS011;42456;49.956;20.004;2022-10-26T15:02:43;15.03;;;4.37;;
56567;SDS011;42456;49.956;20.004;2022-10-26T15:07:54;14.18;;;5.05;;
56567;SDS011;42456;49.956;20.004;2022-10-26T15:16:48;18.55;;;6.10;;
56567;SDS011;42456;49.956;20.004;2022-10-26T15:21:02;45.98;;;18.00;;
56567;SDS011;42456;49.956;20.004;2022-10-26T15:23:34;50.60;;;19.17;;
56567;SDS011;42456;49.956;20.004;2022-10-26T15:26:03;38.50;;;14.05;;
56567;SDS011;42456;49.956;20.004;2022-10-26T15:36:21;31.62;;;15.18;;
56567;SDS011;42456;49.956;20.004;2022-10-26T15:38:50;26.45;;;12.55;;
56567;SDS011;42456;49.956;20.004;2022-10-26T15:44:01;24.77;;;10.20;;
56567;SDS011;42456;49.956;20.004;2022-10-26T15:46:34;15.25;;;5.75;;
56567;SDS011;42456;49.956;20.004;2022-10-26T15:49:03;12.50;;;5.20;;
56567;SDS011;42456;49.956;20.004;2022-10-26T15:51:32;11.73;;;4.47;;
56567;SDS011;42456;49.956;20.004;2022-10-26T15:54:01;11.57;;;5.00;;
56567;SDS011;42456;49.956;20.004;2022-10-26T15:56:28;12.70;;;5.10;;
56567;SDS011;42456;49.956;20.004;2022-10-26T15:58:56;18.02;;;5.97;;
56567;SDS011;42456;49.956;20.004;2022-10-26T16:01:23;20.77;;;6.83;;
56567;SDS011;42456;49.956;20.004;2022-10-26T16:03:51;20.88;;;8.53;;
56567;SDS011;42456;49.956;20.004;2022-10-26T16:06:28;25.95;;;8.18;;
56567;SDS011;42456;49.956;20.004;2022-10-26T16:09:04;25.27;;;9.30;;
56567;SDS011;42456;49.956;20.004;2022-10-26T16:11:34;28.45;;;10.48;;
56567;SDS011;42456;49.956;20.004;2022-10-26T16:14:01;29.75;;;13.70;;
56567;SDS011;42456;49.956;20.004;2022-10-26T16:16:27;31.15;;;14.98;;
56567;SDS011;42456;49.956;20.004;2022-10-26T16:18:54;32.20;;;13.40;;
56567;SDS011;42456;49.956;20.004;2022-10-26T16:21:21;27.60;;;12.73;;
56567;SDS011;42456;49.956;20.004;2022-10-26T16:23:50;29.87;;;13.28;;
56567;SDS011;42456;49.956;20.004;2022-10-26T16:26:19;34.70;;;16.23;;
56567;SDS011;42456;49.956;20.004;2022-10-26T16:28:47;31.05;;;14.85;;
56567;SDS011;42456;49.956;20.004;2022-10-26T16:31:14;23.25;;;10.43;;
56567;SDS011;42456;49.956;20.004;2022-10-26T16:33:43;21.97;;;10.60;;
56567;SDS011;42456;49.956;20.004;2022-10-26T16:36:10;24.02;;;12.03;;
56567;SDS011;42456;49.956;20.004;2022-10-26T16:38:38;28.42;;;14.38;;
56567;SDS011;42456;49.956;20.004;2022-10-26T16:43:38;57.53;;;26.77;;
56567;SDS011;42456;49.956;20.004;2022-10-26T16:46:08;47.95;;;22.15;;
56567;SDS011;42456;49.956;20.004;2022-10-26T16:48:38;40.63;;;20.27;;
56567;SDS011;42456;49.956;20.004;2022-10-26T16:51:07;32.83;;;16.32;;
56567;SDS011;42456;49.956;20.004;2022-10-26T16:53:36;25.00;;;12.35;;
56567;SDS011;42456;49.956;20.004;2022-10-26T16:56:04;24.05;;;11.78;;
56567;SDS011;42456;49.956;20.004;2022-10-26T16:58:36;29.00;;;12.30;;
56567;SDS011;42456;49.956;20.004;2022-10-26T17:01:04;22.13;;;10.30;;
56567;SDS011;42456;49.956;20.004;2022-10-26T17:03:31;25.52;;;9.40;;
56567;SDS011;42456;49.956;20.004;2022-10-26T17:05:58;20.72;;;9.65;;
56567;SDS011;42456;49.956;20.004;2022-10-26T17:08:27;19.20;;;8.40;;
56567;SDS011;42456;49.956;20.004;2022-10-26T17:10:54;19.50;;;8.20;;
56567;SDS011;42456;49.956;20.004;2022-10-26T17:13:31;16.90;;;7.95;;
56567;SDS011;42456;49.956;20.004;2022-10-26T17:16:01;19.70;;;8.28;;
56567;SDS011;42456;49.956;20.004;2022-10-26T17:18:30;18.95;;;9.13;;
56567;SDS011;42456;49.956;20.004;2022-10-26T17:20:56;17.90;;;8.18;;
56567;SDS011;42456;49.956;20.004;2022-10-26T17:23:22;17.45;;;8.93;;
56567;SDS011;42456;49.956;20.004;2022-10-26T17:25:49;17.20;;;7.92;;
56567;SDS011;42456;49.956;20.004;2022-10-26T17:28:15;18.20;;;8.83;;
56567;SDS011;42456;49.956;20.004;2022-10-26T17:30:42;19.92;;;10.63;;
56567;SDS011;42456;49.956;20.004;2022-10-26T17:33:09;21.40;;;10.10;;
56567;SDS011;42456;49.956;20.004;2022-10-26T17:35:36;20.57;;;10.38;;
56567;SDS011;42456;49.956;20.004;2022-10-26T17:38:02;22.10;;;10.70;;
56567;SDS011;42456;49.956;20.004;2022-10-26T17:40:29;23.62;;;11.45;;
56567;SDS011;42456;49.956;20.004;2022-10-26T17:42:57;28.30;;;12.88;;
56567;SDS011;42456;49.956;20.004;2022-10-26T17:45:24;32.17;;;15.32;;
56567;SDS011;42456;49.956;20.004;2022-10-26T17:47:51;29.90;;;15.08;;
56567;SDS011;42456;49.956;20.004;2022-10-26T17:50:17;25.50;;;13.40;;
56567;SDS011;42456;49.956;20.004;2022-10-26T17:52:43;23.07;;;12.07;;